Time;durP1;ratioP1;P1;durP2;ratioP2;P2;SDS_P1;SDS_P2;PMS_P1;PMS_P2;Temp;Humidity;BMP_temperature;BMP_pressure;BME280_temperature;BME280_humidity;BME280_pressure;Samples;Min_cycle;Max_cycle;Signal;HPM_P1;HPM_P2
2022/01/15 00:02:52;;;;;;;1.00;0.30;;;;;;;1.03;100.00;98875.84;1490211;96;21180;-90
2022/01/15 00:05:18;;;;;;;1.87;0.55;;;;;;;1.01;100.00;98871.31;1490421;96;22607;-89
2022/01/15 00:07:47;;;;;;;2.10;0.50;;;;;;;0.99;100.00;98885.33;1490386;96;21034;-91
2022/01/15 00:10:12;;;;;;;3.95;0.47;;;;;;;1.00;100.00;98889.58;1490453;96;21089;-92
2022/01/15 00:12:40;;;;;;;1.45;0.50;;;;;;;1.00;100.00;98886.92;1509462;93;21149;-90
2022/01/15 00:15:14;;;;;;;1.92;0.75;;;;;;;1.00;100.00;98901.02;1512135;94;21548;-92
2022/01/15 00:17:48;;;;;;;3.52;0.53;;;;;;;1.00;100.00;98902.84;1444908;99;21195;-92
2022/01/15 00:20:19;;;;;;;5.55;0.47;;;;;;;1.00;100.00;98922.73;1442208;99;21228;-92
2022/01/15 00:22:46;;;;;;;1.52;0.50;;;;;;;1.02;100.00;98920.13;1415418;101;21202;-89
2022/01/15 00:25:12;;;;;;;1.90;0.70;;;;;;;1.05;100.00;98913.02;1415603;101;21241;-92
2022/01/15 00:27:40;;;;;;;3.62;0.33;;;;;;;1.06;100.00;98912.00;1415490;101;21134;-93
2022/01/15 00:30:08;;;;;;;3.50;0.42;;;;;;;1.09;100.00;98914.70;1415609;101;21085;-91
2022/01/15 00:32:34;;;;;;;4.50;0.72;;;;;;;1.11;100.00;98921.88;1415960;101;21123;-93
2022/01/15 00:35:00;;;;;;;3.40;0.53;;;;;;;1.16;100.00;98931.78;1415929;100;21123;-92
2022/01/15 00:37:31;;;;;;;2.10;0.70;;;;;;;1.16;100.00;98924.62;1415240;101;21469;-92
2022/01/15 00:39:56;;;;;;;3.35;0.50;;;;;;;1.17;100.00;98930.20;1415347;99;21143;-89
2022/01/15 00:42:22;;;;;;;3.80;0.60;;;;;;;1.17;100.00;98931.52;1410929;101;21108;-91
2022/01/15 00:44:49;;;;;;;6.05;1.15;;;;;;;1.20;100.00;98934.22;1406692;102;20984;-91
2022/01/15 00:47:15;;;;;;;2.67;0.53;;;;;;;1.21;100.00;98931.88;1406671;100;21076;-93
2022/01/15 00:49:41;;;;;;;4.28;0.70;;;;;;;1.23;100.00;98925.78;1396350;101;21966;-92
2022/01/15 00:52:08;;;;;;;5.40;0.82;;;;;;;1.25;100.00;98932.99;1420481;99;21507;-90
2022/01/15 00:54:34;;;;;;;2.83;0.45;;;;;;;1.26;100.00;98947.33;1435999;97;20981;-92
2022/01/15 00:56:59;;;;;;;4.92;0.60;;;;;;;1.26;100.00;98956.61;1477463;95;21052;-91
2022/01/15 00:59:25;;;;;;;4.67;1.40;;;;;;;1.26;100.00;98959.27;1522280;91;21721;-90
2022/01/15 01:01:52;;;;;;;3.62;0.60;;;;;;;1.28;100.00;98952.41;1527795;93;21193;-91
2022/01/15 01:04:17;;;;;;;2.42;0.53;;;;;;;1.30;100.00;98972.36;1527816;93;20934;-91
2022/01/15 01:06:43;;;;;;;5.03;0.60;;;;;;;1.30;100.00;98964.40;1527710;93;20954;-90
2022/01/15 01:09:09;;;;;;;5.12;0.33;;;;;;;1.30;100.00;98968.91;1527650;93;21010;-91
2022/01/15 01:11:46;;;;;;;4.22;0.53;;;;;;;1.28;100.00;98961.17;1524046;92;21720;-91
2022/01/15 01:24:46;;;;;;;2.47;0.30;;;;;;;1.16;100.00;98983.51;1702696;82;21566;-89
2022/01/15 01:29:54;;;;;;;4.03;0.40;;;;;;;1.15;100.00;98985.36;1660288;86;21070;-90
2022/01/15 01:32:15;;;;;;;2.50;0.53;;;;;;;1.15;100.00;98991.99;1656316;86;21146;-91
2022/01/15 01:34:39;;;;;;;4.30;0.62;;;;;;;1.12;100.00;98999.10;1656056;86;21125;-90
2022/01/15 01:37:19;;;;;;;1.50;0.42;;;;;;;1.10;100.00;99009.14;1660653;84;21086;-90
2022/01/15 01:40:00;;;;;;;2.30;0.53;;;;;;;1.09;100.00;99010.19;1656243;86;21078;-92
2022/01/15 01:45:12;;;;;;;1.40;0.40;;;;;;;1.10;100.00;99018.42;1661134;86;21050;-92
2022/01/15 01:47:41;;;;;;;2.58;0.50;;;;;;;1.05;100.00;99015.66;1647380;85;21543;-92
2022/01/15 01:50:18;;;;;;;4.25;1.00;;;;;;;0.98;100.00;99019.79;1647408;87;21060;-91
2022/01/15 01:52:48;;;;;;;1.37;0.60;;;;;;;0.92;100.00;99022.06;1647524;87;22114;-91
2022/01/15 01:55:16;;;;;;;2.92;0.47;;;;;;;0.85;100.00;99028.83;1647509;87;21069;-93
2022/01/15 01:57:43;;;;;;;2.30;0.60;;;;;;;0.79;100.00;99032.39;1647545;87;21069;-93
2022/01/15 02:00:14;;;;;;;2.35;0.37;;;;;;;0.77;100.00;99033.69;1647230;87;21597;-92
2022/01/15 02:02:40;;;;;;;4.78;0.80;;;;;;;0.74;100.00;99040.27;1647917;87;21567;-92
2022/01/15 02:05:07;;;;;;;1.82;0.40;;;;;;;0.72;100.00;99041.02;1625135;87;21185;-90
2022/01/15 02:07:34;;;;;;;3.65;0.88;;;;;;;0.71;100.00;99041.23;1647406;87;21120;-92
2022/01/15 02:10:00;;;;;;;1.42;0.40;;;;;;;0.67;100.00;99047.52;1647516;87;21061;-91
2022/01/15 02:12:26;;;;;;;3.00;0.50;;;;;;;0.63;100.00;99048.52;1639216;85;22565;-93
2022/01/15 02:14:52;;;;;;;5.55;1.10;;;;;;;0.60;100.00;99035.73;1633510;87;21149;-91
2022/01/15 02:17:20;;;;;;;1.95;0.60;;;;;;;0.58;100.00;99044.42;1633191;87;21819;-90
2022/01/15 02:20:10;;;;;;;4.22;0.50;;;;;;;0.43;100.00;99036.95;1632784;86;21010;-92
2022/01/15 02:25:09;;;;;;;2.52;0.50;;;;;;;0.55;100.00;99056.81;1657311;84;21590;-92
2022/01/15 02:27:35;;;;;;;2.20;0.50;;;;;;;0.58;100.00;99061.66;1681799;85;20996;-91
2022/01/15 02:30:04;;;;;;;4.37;0.55;;;;;;;0.61;100.00;99059.86;1683880;85;21610;-90
2022/01/15 02:32:34;;;;;;;2.67;0.60;;;;;;;0.59;100.00;99051.84;1641646;87;21068;-90
2022/01/15 02:35:03;;;;;;;4.28;0.93;;;;;;;0.67;100.00;99070.05;1641328;87;21097;-94
2022/01/15 02:37:30;;;;;;;6.12;0.30;;;;;;;0.68;100.00;99069.84;1641721;87;21111;-89
2022/01/15 02:39:58;;;;;;;2.10;0.40;;;;;;;0.71;100.00;99076.52;1641587;86;21044;-93
2022/01/15 02:42:28;;;;;;;3.17;1.00;;;;;;;0.70;100.00;99077.54;1641574;87;21149;-91
2022/01/15 02:44:59;;;;;;;2.27;0.42;;;;;;;0.72;100.00;99085.28;1637723;87;21095;-92
2022/01/15 02:50:08;;;;;;;4.12;0.35;;;;;;;0.71;100.00;99092.43;1641222;87;21065;-91
2022/01/15 02:52:34;;;;;;;1.52;0.50;;;;;;;0.72;100.00;99092.70;1638195;87;20977;-91
2022/01/15 02:55:00;;;;;;;2.90;0.75;;;;;;;0.77;100.00;99102.63;1641640;87;21170;-92
2022/01/15 02:57:26;;;;;;;4.85;0.40;;;;;;;0.79;100.00;99097.35;1641925;87;21013;-92
2022/01/15 02:59:52;;;;;;;2.70;0.33;;;;;;;0.83;100.00;99109.65;1641697;87;21015;-89
2022/01/15 03:02:18;;;;;;;2.10;0.40;;;;;;;0.86;100.00;99093.27;1641953;87;21072;-91
2022/01/15 03:04:44;;;;;;;3.05;0.60;;;;;;;0.89;100.00;99106.86;1641344;87;21143;-91
2022/01/15 03:07:10;;;;;;;2.60;0.50;;;;;;;0.93;100.00;99118.33;1642077;87;21920;-92
2022/01/15 03:09:35;;;;;;;2.22;0.47;;;;;;;0.93;100.00;99123.11;1650867;86;20913;-92
2022/01/15 03:12:03;;;;;;;3.02;0.40;;;;;;;0.97;100.00;99118.14;1650142;85;20990;-89
2022/01/15 03:14:31;;;;;;;3.52;0.50;;;;;;;0.99;100.00;99126.15;1669139;85;21619;-91
2022/01/15 03:16:57;;;;;;;1.05;0.50;;;;;;;1.04;100.00;99122.81;1668831;85;21144;-93
2022/01/15 03:19:23;;;;;;;1.85;0.40;;;;;;;1.07;100.00;99128.98;1668765;85;22219;-93
2022/01/15 03:21:49;;;;;;;1.02;0.53;;;;;;;1.11;100.00;99132.77;1669143;86;21006;-94
2022/01/15 03:24:15;;;;;;;1.07;0.35;;;;;;;1.13;100.00;99134.67;1669033;85;20927;-94
2022/01/15 03:26:41;;;;;;;1.45;0.42;;;;;;;1.14;100.00;99142.38;1646353;86;21060;-94
2022/01/15 03:29:07;;;;;;;3.30;0.53;;;;;;;1.16;100.00;99152.77;1666636;83;20885;-94
2022/01/15 03:31:33;;;;;;;2.85;0.37;;;;;;;1.17;100.00;99157.03;1712801;83;21842;-92
2022/01/15 03:33:59;;;;;;;3.90;0.82;;;;;;;1.18;100.00;99155.17;1712917;83;21083;-92
2022/01/15 03:36:25;;;;;;;6.22;0.70;;;;;;;1.18;100.00;99165.30;1712970;83;21748;-93
2022/01/15 03:38:51;;;;;;;1.02;0.40;;;;;;;1.20;100.00;99169.02;1700574;83;20873;-92
2022/01/15 03:41:17;;;;;;;2.30;0.57;;;;;;;1.20;100.00;99159.73;1712808;83;21055;-93
2022/01/15 03:43:44;;;;;;;1.62;0.50;;;;;;;1.22;100.00;99176.23;1712434;83;22005;-93
2022/01/15 03:46:10;;;;;;;2.47;0.50;;;;;;;1.23;100.00;99174.66;1712507;83;21042;-92
2022/01/15 03:48:36;;;;;;;1.80;0.37;;;;;;;1.22;100.00;99174.39;1712809;83;21066;-93
2022/01/15 03:51:03;;;;;;;3.37;0.42;;;;;;;1.24;100.00;99180.80;1712928;83;21078;-92
2022/01/15 03:53:29;;;;;;;2.77;0.40;;;;;;;1.26;100.00;99186.66;1712702;83;21090;-90
2022/01/15 03:55:55;;;;;;;2.47;0.40;;;;;;;1.25;100.00;99197.00;1712948;83;21069;-92
2022/01/15 03:58:24;;;;;;;1.35;0.42;;;;;;;1.25;100.00;99181.88;1713016;82;21480;-90
2022/01/15 04:00:50;;;;;;;2.45;0.72;;;;;;;1.29;100.00;99198.13;1712815;83;21039;-93
2022/01/15 04:03:16;;;;;;;1.40;0.40;;;;;;;1.29;100.00;99200.26;1712994;82;21576;-93
2022/01/15 04:05:42;;;;;;;1.80;0.30;;;;;;;1.30;100.00;99197.91;1712656;83;21066;-92
2022/01/15 04:08:08;;;;;;;2.77;0.42;;;;;;;1.29;100.00;99203.44;1700551;83;21059;-91
2022/01/15 04:10:35;;;;;;;2.87;0.40;;;;;;;1.32;100.00;99206.95;1712886;83;21278;-92
2022/01/15 04:13:01;;;;;;;2.25;0.47;;;;;;;1.28;100.00;99202.64;1721666;82;21020;-92
2022/01/15 04:15:27;;;;;;;2.45;0.40;;;;;;;1.26;100.00;99211.86;1727744;82;20940;-91
2022/01/15 04:17:53;;;;;;;1.77;0.50;;;;;;;1.21;100.00;99213.11;1727391;83;21044;-92
2022/01/15 04:20:22;;;;;;;1.40;0.40;;;;;;;1.17;100.00;99214.06;1727541;83;21678;-92
2022/01/15 04:22:51;;;;;;;1.30;0.40;;;;;;;1.10;100.00;99208.09;1727181;81;21043;-91
2022/01/15 04:25:18;;;;;;;1.70;0.30;;;;;;;1.02;100.00;99213.21;1707161;83;21059;-91
2022/01/15 04:27:45;;;;;;;5.15;0.70;;;;;;;0.96;100.00;99219.97;1727593;83;21027;-92
2022/01/15 04:30:14;;;;;;;2.58;0.30;;;;;;;0.90;100.00;99223.02;1727427;82;20988;-91
2022/01/15 04:32:41;;;;;;;1.55;0.55;;;;;;;0.86;100.00;99227.98;1727486;82;21216;-91
2022/01/15 04:35:08;;;;;;;4.05;0.70;;;;;;;0.82;100.00;99236.61;1727567;83;21043;-92
2022/01/15 04:37:44;;;;;;;6.08;0.50;;;;;;;0.76;100.00;99234.36;1727570;82;21071;-92
2022/01/15 04:40:10;;;;;;;6.33;0.57;;;;;;;0.72;100.00;99233.21;1724074;81;21075;-92
2022/01/15 04:42:36;;;;;;;1.95;0.42;;;;;;;0.68;100.00;99242.15;1727560;83;21058;-92
2022/01/15 04:45:07;;;;;;;3.27;0.60;;;;;;;0.61;100.00;99244.08;1727594;82;21140;-90
2022/01/15 04:47:34;;;;;;;3.95;0.50;;;;;;;0.57;100.00;99254.05;1727408;82;21071;-91
2022/01/15 04:50:02;;;;;;;1.47;0.70;;;;;;;0.54;100.00;99258.48;1727139;83;21048;-92
2022/01/15 04:52:30;;;;;;;6.90;0.60;;;;;;;0.51;100.00;99269.02;1727719;82;21099;-94
2022/01/15 04:54:57;;;;;;;3.62;0.60;;;;;;;0.48;100.00;99270.80;1727383;82;21024;-93
2022/01/15 04:57:22;;;;;;;1.75;0.60;;;;;;;0.44;100.00;99274.42;1727393;83;21516;-92
2022/01/15 04:59:48;;;;;;;4.62;0.80;;;;;;;0.42;100.00;99272.52;1706969;83;20884;-94
2022/01/15 05:02:14;;;;;;;2.58;0.53;;;;;;;0.40;100.00;99276.41;1727466;83;20908;-91
2022/01/15 05:04:40;;;;;;;1.45;0.50;;;;;;;0.36;100.00;99282.69;1727442;83;20893;-92
2022/01/15 05:07:06;;;;;;;2.92;0.72;;;;;;;0.35;100.00;99281.05;1727891;81;21081;-93
2022/01/15 05:09:32;;;;;;;5.80;0.72;;;;;;;0.34;100.00;99282.62;1727548;83;21009;-93
2022/01/15 05:12:10;;;;;;;3.67;0.95;;;;;;;0.34;100.00;99282.09;1727560;82;21000;-93
2022/01/15 05:14:32;;;;;;;5.67;0.85;;;;;;;0.31;100.00;99293.67;1721832;83;21583;-90
2022/01/15 05:16:57;;;;;;;2.98;0.60;;;;;;;0.28;100.00;99301.55;1725394;83;20857;-93
2022/01/15 05:19:23;;;;;;;4.00;0.55;;;;;;;0.27;100.00;99306.56;1725177;82;20968;-91
2022/01/15 05:21:50;;;;;;;2.95;0.65;;;;;;;0.24;100.00;99305.69;1725529;83;21874;-91
2022/01/15 05:24:15;;;;;;;5.12;0.75;;;;;;;0.24;100.00;99308.34;1725226;83;20908;-91
2022/01/15 05:26:41;;;;;;;1.72;0.60;;;;;;;0.21;100.00;99318.05;1725521;83;20955;-95
2022/01/15 05:29:07;;;;;;;2.75;0.42;;;;;;;0.21;100.00;99316.73;1725264;83;20941;-91
2022/01/15 05:31:33;;;;;;;6.65;0.70;;;;;;;0.21;100.00;99318.86;1725248;83;20928;-90
2022/01/15 05:33:59;;;;;;;1.77;0.60;;;;;;;0.20;100.00;99322.52;1725322;82;21255;-89
2022/01/15 05:36:28;;;;;;;1.77;0.50;;;;;;;0.23;100.00;99313.32;1704469;83;21072;-90
2022/01/15 05:38:53;;;;;;;2.08;0.47;;;;;;;0.25;100.00;99330.33;1724704;83;21055;-93
2022/01/15 05:41:21;;;;;;;2.52;0.60;;;;;;;0.30;100.00;99343.73;1725407;83;21554;-92
2022/01/15 05:43:47;;;;;;;4.95;0.70;;;;;;;0.33;100.00;99340.11;1705166;83;21095;-90
2022/01/15 05:46:13;;;;;;;2.98;0.50;;;;;;;0.38;100.00;99343.39;1719121;82;21924;-93
2022/01/15 05:48:39;;;;;;;0.82;0.30;;;;;;;0.43;100.00;99352.29;1712707;83;21090;-92
2022/01/15 05:51:08;;;;;;;4.78;0.68;;;;;;;0.48;100.00;99354.80;1722489;82;21062;-94
2022/01/15 05:53:34;;;;;;;2.70;0.37;;;;;;;0.51;100.00;99364.43;1702129;82;21147;-92
2022/01/15 05:56:00;;;;;;;1.07;0.25;;;;;;;0.51;100.00;99373.70;1725302;82;20987;-92
2022/01/15 05:58:26;;;;;;;0.40;0.20;;;;;;;0.47;100.00;99376.49;1731975;82;21157;-95
2022/01/15 06:00:52;;;;;;;4.08;0.40;;;;;;;0.46;100.00;99385.48;1732098;82;21048;-94
2022/01/15 06:03:18;;;;;;;1.70;0.50;;;;;;;0.52;100.00;99389.09;1724619;82;21382;-90
2022/01/15 06:05:44;;;;;;;1.80;0.47;;;;;;;0.55;100.00;99393.42;1728411;82;20856;-94
2022/01/15 06:08:10;;;;;;;3.95;0.88;;;;;;;0.58;100.00;99387.67;1724899;82;20956;-95
2022/01/15 06:10:36;;;;;;;1.72;0.55;;;;;;;0.65;100.00;99396.88;1734861;82;21131;-93
2022/01/15 06:13:03;;;;;;;3.72;0.40;;;;;;;0.71;100.00;99410.56;1727651;82;21477;-95
2022/01/15 06:15:28;;;;;;;3.00;0.40;;;;;;;0.77;100.00;99404.88;1725265;83;21035;-94
2022/01/15 06:17:54;;;;;;;2.98;0.40;;;;;;;0.82;100.00;99411.10;1729576;82;20876;-93
2022/01/15 06:20:20;;;;;;;2.47;0.50;;;;;;;0.89;100.00;99409.70;1712753;83;20916;-91
2022/01/15 06:22:47;;;;;;;2.40;0.40;;;;;;;0.96;100.00;99416.23;1722642;82;21132;-92
2022/01/15 06:25:13;;;;;;;2.90;0.45;;;;;;;1.01;100.00;99425.66;1724885;82;21040;-92
2022/01/15 06:27:39;;;;;;;1.57;0.45;;;;;;;1.03;100.00;99428.38;1720255;82;21039;-93
2022/01/15 06:30:06;;;;;;;2.50;0.70;;;;;;;1.10;100.00;99422.97;1713337;82;20889;-96
2022/01/15 06:32:36;;;;;;;1.85;0.75;;;;;;;1.20;100.00;99417.91;1723811;83;21086;-93
2022/01/15 06:35:06;;;;;;;5.35;0.80;;;;;;;1.33;100.00;99427.52;1724785;82;21056;-94
2022/01/15 06:37:32;;;;;;;7.08;0.70;;;;;;;1.50;100.00;99427.16;1725340;82;21023;-93
2022/01/15 06:39:58;;;;;;;3.58;0.70;;;;;;;1.65;100.00;99437.32;1725337;83;20857;-94
2022/01/15 06:42:24;;;;;;;2.87;0.80;;;;;;;1.73;100.00;99439.61;1725533;82;21044;-91
2022/01/15 06:44:50;;;;;;;9.73;1.67;;;;;;;1.76;100.00;99438.35;1725261;83;21105;-94
2022/01/15 06:47:16;;;;;;;1.25;0.53;;;;;;;1.75;100.00;99446.04;1705115;83;21130;-90
2022/01/15 06:49:42;;;;;;;3.65;0.72;;;;;;;1.81;100.00;99449.91;1711395;83;20967;-90
2022/01/15 06:52:08;;;;;;;5.05;0.90;;;;;;;1.89;100.00;99449.28;1725543;83;20964;-93
2022/01/15 06:54:34;;;;;;;2.02;0.50;;;;;;;1.96;100.00;99458.73;1725721;83;21047;-93
2022/01/15 06:57:00;;;;;;;2.08;0.50;;;;;;;2.00;100.00;99466.55;1725049;82;21082;-89
2022/01/15 06:59:26;;;;;;;4.30;0.80;;;;;;;2.07;100.00;99462.97;1725319;83;21131;-91
2022/01/15 07:01:52;;;;;;;2.98;0.62;;;;;;;2.07;100.00;99467.76;1725283;83;21000;-92
2022/01/15 07:04:18;;;;;;;3.65;0.70;;;;;;;2.20;100.00;99475.47;1725302;82;20912;-90
2022/01/15 07:06:44;;;;;;;5.37;0.93;;;;;;;3.45;100.00;99467.79;1725176;83;21080;-91
2022/01/15 07:09:10;;;;;;;3.40;0.90;;;;;;;4.59;100.00;99479.03;1724954;82;20979;-91
2022/01/15 07:11:36;;;;;;;3.15;0.70;;;;;;;4.97;100.00;99468.80;1725273;82;21058;-92
2022/01/15 07:14:02;;;;;;;1.32;0.65;;;;;;;5.12;100.00;99463.64;1724848;82;20984;-88
2022/01/15 07:16:28;;;;;;;6.65;0.75;;;;;;;6.63;100.00;99466.08;1725341;83;21697;-88
2022/01/15 07:18:54;;;;;;;1.10;0.50;;;;;;;6.92;100.00;99491.09;1724995;82;21488;-91
2022/01/15 07:21:20;;;;;;;4.85;0.60;;;;;;;6.01;100.00;99482.86;1725421;83;21109;-91
2022/01/15 07:23:46;;;;;;;4.45;0.75;;;;;;;5.45;100.00;99495.20;1724946;83;21678;-89
2022/01/15 07:26:14;;;;;;;4.67;0.70;;;;;;;5.16;100.00;99494.11;1724984;83;20873;-91
2022/01/15 07:28:40;;;;;;;1.07;0.50;;;;;;;4.90;100.00;99501.03;1704202;83;21496;-90
2022/01/15 07:31:06;;;;;;;1.70;0.47;;;;;;;4.63;100.00;99503.64;1725162;83;20936;-90
2022/01/15 07:33:32;;;;;;;1.45;0.60;;;;;;;4.45;100.00;99503.95;1724959;83;20896;-90
2022/01/15 07:35:58;;;;;;;2.10;0.60;;;;;;;4.26;100.00;99508.20;1704137;83;22403;-89
2022/01/15 07:38:24;;;;;;;4.30;0.50;;;;;;;4.18;100.00;99509.98;1724751;83;20904;-89
2022/01/15 07:40:53;;;;;;;1.52;0.50;;;;;;;4.22;100.00;99509.76;1725295;83;20912;-91
2022/01/15 07:43:17;;;;;;;2.90;1.20;;;;;;;4.26;100.00;99510.88;1721381;83;21056;-91
2022/01/15 07:45:43;;;;;;;2.67;0.70;;;;;;;4.32;100.00;99523.75;1725010;83;21011;-89
2022/01/15 07:48:09;;;;;;;4.35;0.95;;;;;;;4.71;100.00;99525.10;1721454;83;21256;-91
2022/01/15 07:50:35;;;;;;;2.85;0.72;;;;;;;4.72;100.00;99526.17;1724789;83;20964;-91
2022/01/15 07:53:02;;;;;;;3.20;0.60;;;;;;;4.53;100.00;99528.87;1725250;82;20996;-90
2022/01/15 07:55:27;;;;;;;5.28;1.30;;;;;;;4.57;100.00;99529.18;1725396;82;21519;-91
2022/01/15 07:57:53;;;;;;;5.33;0.80;;;;;;;4.25;100.00;99533.80;1726351;83;20921;-89
2022/01/15 08:00:20;;;;;;;4.53;0.60;;;;;;;4.25;100.00;99533.80;1725008;82;21536;-90
2022/01/15 08:02:47;;;;;;;2.05;0.70;;;;;;;4.19;100.00;99535.58;1725143;83;21009;-93
2022/01/15 08:05:13;;;;;;;1.17;0.65;;;;;;;4.18;100.00;99544.64;1725071;83;21080;-89
2022/01/15 08:07:43;;;;;;;2.62;0.80;;;;;;;4.21;100.00;99555.34;1725237;82;21742;-92
2022/01/15 08:10:09;;;;;;;3.72;0.47;;;;;;;4.16;100.00;99564.06;1705144;83;21009;-91
2022/01/15 08:12:46;;;;;;;3.58;0.82;;;;;;;4.20;100.00;99563.05;1725366;82;21422;-92
2022/01/15 08:15:14;;;;;;;2.40;0.70;;;;;;;4.62;100.00;99562.58;1725691;83;21512;-90
2022/01/15 08:17:40;;;;;;;2.62;0.70;;;;;;;5.52;100.00;99551.11;1727714;82;21496;-89
2022/01/15 08:20:07;;;;;;;2.30;0.65;;;;;;;5.81;100.00;99571.70;1727377;82;20951;-92
2022/01/15 08:22:34;;;;;;;3.40;0.65;;;;;;;5.68;100.00;99572.39;1727562;81;21520;-89
2022/01/15 08:25:00;;;;;;;1.90;0.90;;;;;;;5.70;100.00;99573.46;1725352;82;21879;-89
2022/01/15 08:27:25;;;;;;;1.92;0.60;;;;;;;6.17;100.00;99574.16;1727480;82;20881;-90
2022/01/15 08:29:51;;;;;;;3.83;0.90;;;;;;;7.63;100.00;99571.66;1727562;83;20987;-88
2022/01/15 08:32:17;;;;;;;2.17;0.70;;;;;;;7.11;89.71;99570.44;1727475;83;20877;-91
2022/01/15 08:34:46;;;;;;;6.65;1.00;;;;;;;6.73;91.67;99586.58;1727545;82;21011;-90
2022/01/15 08:37:14;;;;;;;3.62;1.00;;;;;;;6.46;100.00;99589.91;1727715;83;21646;-95
2022/01/15 08:39:40;;;;;;;3.00;0.95;;;;;;;6.25;97.37;99591.63;1727715;83;21000;-90
2022/01/15 08:42:09;;;;;;;5.20;1.17;;;;;;;5.92;98.17;99579.55;1727761;82;21055;-91
2022/01/15 08:44:42;;;;;;;2.27;0.62;;;;;;;5.77;100.00;99593.33;1727218;83;21020;-93
2022/01/15 08:47:05;;;;;;;4.28;1.10;;;;;;;5.43;96.30;99578.27;1657682;84;21153;-91
2022/01/15 08:49:32;;;;;;;3.47;0.80;;;;;;;5.09;100.00;99586.97;1658709;85;21082;-92
2022/01/15 08:51:57;;;;;;;3.75;1.32;;;;;;;4.73;100.00;99586.48;1659011;85;21137;-92
2022/01/15 08:54:23;;;;;;;5.97;0.85;;;;;;;4.53;100.00;99586.23;1658345;85;20995;-90
2022/01/15 08:56:49;;;;;;;3.08;0.75;;;;;;;4.19;100.00;99561.44;1658535;85;21628;-90
2022/01/15 08:59:15;;;;;;;3.00;0.60;;;;;;;4.19;100.00;99588.91;1658089;86;21205;-91
2022/01/15 09:01:41;;;;;;;4.20;0.72;;;;;;;4.17;100.00;99592.33;1658528;85;21095;-92
2022/01/15 09:04:07;;;;;;;6.30;0.88;;;;;;;4.09;100.00;99594.89;1658847;85;21633;-90
2022/01/15 09:06:33;;;;;;;4.78;0.75;;;;;;;4.00;100.00;99588.34;1654608;85;20994;-91
2022/01/15 09:08:59;;;;;;;2.17;0.50;;;;;;;3.97;100.00;99600.83;1658549;85;21042;-92
2022/01/15 09:11:25;;;;;;;1.98;0.85;;;;;;;3.95;100.00;99603.44;1658424;85;21538;-93
2022/01/15 09:13:51;;;;;;;2.35;0.72;;;;;;;3.73;100.00;99583.33;1664681;84;21100;-94
2022/01/15 09:16:17;;;;;;;3.58;0.70;;;;;;;3.73;100.00;99583.33;1678156;85;21654;-92
2022/01/15 09:18:43;;;;;;;2.55;0.50;;;;;;;3.85;100.00;99596.06;1679018;85;20957;-90
2022/01/15 09:21:09;;;;;;;8.45;0.80;;;;;;;3.83;100.00;99595.51;1678187;85;21463;-91
2022/01/15 09:23:35;;;;;;;6.70;0.98;;;;;;;3.73;100.00;99589.45;1678090;85;21489;-93
2022/01/15 09:26:01;;;;;;;3.62;0.68;;;;;;;3.66;100.00;99583.48;1678380;85;21181;-92
2022/01/15 09:31:12;;;;;;;3.37;1.05;;;;;;;3.59;100.00;99605.48;1678280;85;21115;-93
2022/01/15 09:33:38;;;;;;;5.37;0.70;;;;;;;3.50;100.00;99602.88;1678313;85;21096;-94
2022/01/15 09:36:05;;;;;;;6.58;0.98;;;;;;;3.44;100.00;99604.63;1677977;84;21016;-93
2022/01/15 09:38:32;;;;;;;3.62;0.70;;;;;;;3.41;100.00;99597.95;1678473;85;21162;-96
2022/01/15 09:41:01;;;;;;;3.55;0.80;;;;;;;3.43;100.00;99603.03;1678606;85;21086;-93
2022/01/15 09:43:28;;;;;;;5.45;0.80;;;;;;;3.46;100.00;99607.88;1637024;85;21099;-89
2022/01/15 09:45:54;;;;;;;5.25;1.00;;;;;;;3.56;100.00;99612.58;1670171;85;21032;-91
2022/01/15 09:48:22;;;;;;;5.30;0.72;;;;;;;3.55;100.00;99608.31;1671160;85;20961;-92
2022/01/15 09:50:48;;;;;;;2.65;0.70;;;;;;;3.59;100.00;99611.61;1643959;85;21169;-93
2022/01/15 09:53:16;;;;;;;2.55;0.80;;;;;;;3.52;100.00;99622.91;1669790;85;21185;-94
2022/01/15 09:55:46;;;;;;;4.20;1.12;;;;;;;3.47;100.00;99620.17;1669419;84;21133;-93
2022/01/15 09:58:12;;;;;;;7.70;1.55;;;;;;;3.44;100.00;99617.14;1669845;85;21092;-90
2022/01/15 10:00:39;;;;;;;4.00;0.95;;;;;;;3.39;100.00;99621.34;1670091;85;20925;-93
2022/01/15 10:03:06;;;;;;;6.40;1.20;;;;;;;3.42;100.00;99614.73;1669833;85;21506;-91
2022/01/15 10:05:32;;;;;;;4.80;1.20;;;;;;;3.36;100.00;99615.16;1669591;85;21557;-91
2022/01/15 10:08:03;;;;;;;6.72;1.20;;;;;;;3.35;100.00;99613.55;1700157;82;20892;-91
2022/01/15 10:10:33;;;;;;;8.03;0.72;;;;;;;3.38;100.00;99616.23;1620392;87;21103;-93
2022/01/15 10:13:17;;;;;;;5.83;1.02;;;;;;;3.36;100.00;99615.69;1620594;88;21097;-91
2022/01/15 10:15:48;;;;;;;4.40;1.10;;;;;;;3.34;100.00;99613.77;1620353;87;21880;-93
2022/01/15 10:18:30;;;;;;;4.03;1.02;;;;;;;3.37;100.00;99619.95;1620447;87;21083;-88
2022/01/15 10:21:13;;;;;;;3.22;1.17;;;;;;;3.33;100.00;99620.16;1620067;88;21094;-88
2022/01/15 10:23:54;;;;;;;5.15;1.20;;;;;;;3.25;100.00;99625.84;1620071;88;21504;-90
2022/01/15 10:26:24;;;;;;;5.00;0.93;;;;;;;3.22;100.00;99617.80;1620442;88;21098;-90
2022/01/15 10:29:03;;;;;;;4.72;0.70;;;;;;;3.22;100.00;99627.12;1598879;88;20994;-93
2022/01/15 10:31:39;;;;;;;1.62;0.68;;;;;;;3.22;100.00;99622.32;1643241;87;21585;-89
2022/01/15 10:34:29;;;;;;;3.45;1.27;;;;;;;3.24;100.00;99622.38;1643673;87;21047;-89
2022/01/15 10:37:21;;;;;;;5.45;1.05;;;;;;;3.31;100.00;99631.02;1643550;87;21229;-89
2022/01/15 10:40:06;;;;;;;1.87;0.60;;;;;;;3.41;100.00;99627.25;1656617;85;21128;-89
2022/01/15 10:42:33;;;;;;;2.55;0.72;;;;;;;3.50;100.00;99615.70;1654325;86;21144;-89
2022/01/15 10:45:10;;;;;;;3.20;0.82;;;;;;;3.49;100.00;99630.04;1656774;86;21090;-88
2022/01/15 10:47:45;;;;;;;4.12;0.70;;;;;;;3.55;100.00;99639.74;1584731;90;21099;-87
2022/01/15 10:50:18;;;;;;;3.67;1.10;;;;;;;3.61;100.00;99638.80;1584717;89;21103;-89
2022/01/15 10:52:44;;;;;;;;;;;;;;;3.59;100.00;99639.58;1510307;95;21498;-89
2022/01/15 10:55:15;;;;;;;8.93;1.55;;;;;;;3.50;100.00;99652.16;1507993;95;21203;-89
2022/01/15 10:57:49;;;;;;;3.77;0.70;;;;;;;3.41;100.00;99641.89;1507761;95;21023;-88
2022/01/15 11:00:40;;;;;;;2.15;0.70;;;;;;;3.37;100.00;99660.70;1508091;95;21068;-90
2022/01/15 11:03:17;;;;;;;5.50;0.70;;;;;;;3.25;100.00;99669.24;1507846;95;21040;-88
2022/01/15 11:05:51;;;;;;;2.95;0.78;;;;;;;2.91;100.00;99670.39;1507514;95;21143;-89
2022/01/15 11:08:29;;;;;;;2.45;0.70;;;;;;;2.73;100.00;99683.79;1516353;94;22288;-87
2022/01/15 11:11:05;;;;;;;4.75;0.80;;;;;;;2.68;100.00;99685.83;1515410;94;21530;-88
2022/01/15 11:13:36;;;;;;;5.62;1.15;;;;;;;2.62;100.00;99680.09;1515942;94;21160;-90
2022/01/15 11:16:08;;;;;;;3.00;0.75;;;;;;;2.69;100.00;99681.31;1516141;94;21100;-87
2022/01/15 11:18:54;;;;;;;7.78;0.85;;;;;;;2.70;100.00;99681.06;1425528;100;21174;-88
2022/01/15 11:21:21;;;;;;;7.17;2.60;;;;;;;2.70;100.00;99673.09;1384109;103;21093;-91
2022/01/15 11:23:49;;;;;;;5.58;2.00;;;;;;;2.66;100.00;99670.61;1384746;103;21135;-93
2022/01/15 11:26:24;;;;;;;4.95;1.20;;;;;;;2.68;100.00;99672.53;1436452;99;21710;-90
2022/01/15 11:28:51;;;;;;;4.37;0.75;;;;;;;2.71;100.00;99670.73;1346611;105;21187;-92
2022/01/15 11:31:24;;;;;;;4.10;1.02;;;;;;;2.63;100.00;99667.08;1339295;107;21622;-89
2022/01/15 11:33:53;;;;;;;4.83;1.12;;;;;;;2.57;100.00;99671.99;1339329;106;22277;-90
2022/01/15 11:36:39;;;;;;;6.30;1.50;;;;;;;2.58;100.00;99668.28;1348400;103;21265;-90
2022/01/15 11:39:09;;;;;;;8.88;1.20;;;;;;;2.56;100.00;99661.08;1363642;103;21194;-93
2022/01/15 11:41:44;;;;;;;5.42;1.82;;;;;;;2.60;100.00;99666.73;1368205;103;21660;-88
2022/01/15 11:44:22;;;;;;;8.98;2.67;;;;;;;2.64;100.00;99685.98;1368146;103;21280;-90
2022/01/15 11:46:54;;;;;;;7.72;3.10;;;;;;;2.72;100.00;99673.67;1368563;103;21218;-87
2022/01/15 11:49:37;;;;;;;9.68;3.37;;;;;;;2.78;100.00;99683.11;1385069;101;21200;-87
2022/01/15 11:52:14;;;;;;;8.33;3.02;;;;;;;2.87;100.00;99675.88;1409993;101;21169;-86
2022/01/15 11:54:51;;;;;;;9.33;3.22;;;;;;;2.99;100.00;99681.19;1409601;101;21163;-86
2022/01/15 11:57:29;;;;;;;17.35;4.97;;;;;;;3.09;100.00;99675.27;1410025;101;21075;-87
2022/01/15 11:59:58;;;;;;;6.37;2.27;;;;;;;3.20;100.00;99689.09;1409868;101;21380;-87
2022/01/15 12:02:37;;;;;;;6.33;2.10;;;;;;;3.31;100.00;99682.14;1409948;101;21119;-86
2022/01/15 12:05:25;;;;;;;2.75;1.15;;;;;;;3.32;100.00;99697.06;1398976;101;21189;-86